Robeline, Louisiana
Current Conditions -  °F | °C
As of 8:15 PM on Friday 31 Oct 2014 (Local Time) from KIER Reporting Station
Clear Clear  
Wind Chill: 58°   Ceiling: Unl
Heat Index: 58°   Visibility: 10mi
Dew Point: 47°   Wind: 8mph
Humidity: 67%   Direction: 360°N
Pressure: 30.24"   Gusts: NA
Location:  31.69°N, 93.3°W
Report Text: KIER 010115Z AUTO 36007KT 10SM CLR 15/09 A3024 RMK AO2 T01460085
Loading
Personal Weather Stations






























Interactive Weather Map
Tropical Storm Tracking
New forecast layout! Learn more

10-Day Weather Forecast

Advertisements
Track Severe Weather on mobile